createdAt,value
2022-09-10T00:01:39.086Z,10.25
2022-09-10T00:04:12.300Z,10.13
2022-09-10T00:06:38.875Z,9.20
2022-09-10T00:09:05.728Z,9.32
2022-09-10T00:11:32.470Z,8.98
2022-09-10T00:14:03.617Z,9.82
2022-09-10T00:16:31.146Z,9.80
2022-09-10T00:18:57.998Z,10.30
2022-09-10T00:21:24.373Z,9.77
2022-09-10T00:23:50.878Z,9.90
2022-09-10T00:26:17.180Z,8.65
2022-09-10T00:28:44.201Z,9.00
2022-09-10T00:31:11.358Z,8.77
2022-09-10T00:33:37.836Z,8.40
2022-09-10T00:36:06.036Z,8.93
2022-09-10T00:38:32.416Z,9.30
2022-09-10T00:41:03.268Z,8.73
2022-09-10T00:43:45.591Z,8.20
2022-09-10T00:46:12.024Z,7.88
2022-09-10T00:48:38.608Z,7.93
2022-09-10T00:51:05.798Z,7.10
2022-09-10T00:53:32.350Z,8.20
2022-09-10T00:56:00.925Z,8.07
2022-09-10T00:58:28.372Z,7.60
2022-09-10T01:00:56.377Z,7.80
2022-09-10T01:03:25.745Z,7.55
2022-09-10T01:05:52.302Z,7.43
2022-09-10T01:08:19.011Z,7.93
2022-09-10T01:11:06.662Z,7.80
2022-09-10T01:13:49.677Z,7.60
2022-09-10T01:16:30.486Z,7.53
2022-09-10T01:19:08.445Z,7.82
2022-09-10T01:21:37.462Z,7.35
2022-09-10T01:24:15.973Z,7.75
2022-09-10T01:26:42.339Z,7.63
2022-09-10T01:29:11.458Z,8.13
2022-09-10T01:31:45.451Z,7.07
2022-09-10T01:34:18.775Z,7.30
2022-09-10T01:36:48.229Z,8.35
2022-09-10T01:39:19.690Z,9.02
2022-09-10T01:41:46.298Z,8.13
2022-09-10T01:44:31.340Z,7.80
2022-09-10T01:47:06.887Z,9.05
2022-09-10T01:49:40.197Z,8.90
2022-09-10T01:52:27.513Z,7.95
2022-09-10T01:55:07.660Z,8.35
2022-09-10T01:57:46.833Z,7.53
2022-09-10T02:00:14.834Z,8.90
2022-09-10T02:02:48.285Z,7.68
2022-09-10T02:05:16.838Z,8.05
2022-09-10T02:07:44.880Z,8.10
2022-09-10T02:10:11.381Z,8.25
2022-09-10T02:12:40.062Z,7.78
2022-09-10T02:15:08.355Z,8.52
2022-09-10T02:17:38.842Z,7.78
2022-09-10T02:20:08.019Z,8.48
2022-09-10T02:22:36.347Z,7.28
2022-09-10T02:25:03.205Z,7.67
2022-09-10T02:27:30.213Z,7.45
2022-09-10T02:29:57.465Z,7.15
2022-09-10T02:32:23.826Z,7.35
2022-09-10T02:34:50.148Z,7.45
2022-09-10T02:37:16.887Z,7.93
2022-09-10T02:39:45.417Z,6.65
2022-09-10T02:42:17.964Z,7.07
2022-09-10T02:44:44.808Z,7.88
2022-09-10T02:47:11.196Z,6.55
2022-09-10T02:49:37.544Z,6.30
2022-09-10T02:52:03.942Z,6.40
2022-09-10T02:54:30.521Z,6.65
2022-09-10T02:56:57.161Z,5.68
2022-09-10T02:59:24.241Z,5.75
2022-09-10T03:01:50.681Z,5.45
2022-09-10T03:04:17.167Z,5.40
2022-09-10T03:06:43.600Z,5.40
2022-09-10T03:09:10.255Z,5.18
2022-09-10T03:11:40.675Z,4.70
2022-09-10T03:14:09.267Z,4.30
2022-09-10T03:16:35.737Z,4.90
2022-09-10T03:19:02.161Z,4.60
2022-09-10T03:21:28.819Z,4.93
2022-09-10T03:23:56.936Z,5.10
2022-09-10T03:26:25.318Z,4.73
2022-09-10T03:28:51.783Z,4.35
2022-09-10T03:31:18.292Z,4.80
2022-09-10T03:33:46.103Z,4.40
2022-09-10T03:36:15.296Z,4.25
2022-09-10T03:38:41.732Z,4.72
2022-09-10T03:41:08.152Z,4.72
2022-09-10T03:43:34.634Z,4.75
2022-09-10T03:46:01.313Z,4.38
2022-09-10T03:48:28.094Z,4.75
2022-09-10T03:50:54.759Z,4.93
2022-09-10T03:53:21.503Z,5.20
2022-09-10T03:55:48.857Z,4.93
2022-09-10T03:58:15.350Z,4.95
2022-09-10T04:00:42.900Z,5.57
2022-09-10T04:03:11.287Z,5.25
2022-09-10T04:05:40.790Z,5.53
2022-09-10T04:08:07.606Z,5.32
2022-09-10T04:10:34.064Z,5.05
2022-09-10T04:13:00.368Z,5.15
2022-09-10T04:15:26.724Z,5.07
2022-09-10T04:17:53.186Z,4.93
2022-09-10T04:20:22.715Z,4.80
2022-09-10T04:22:49.531Z,4.78
2022-09-10T04:25:16.018Z,5.05
2022-09-10T04:27:42.622Z,4.93
2022-09-10T04:30:09.411Z,5.30
2022-09-10T04:32:35.885Z,5.50
2022-09-10T04:35:05.072Z,4.45
2022-09-10T04:37:31.357Z,5.50
2022-09-10T04:39:58.006Z,4.85
2022-09-10T04:42:24.550Z,4.55
2022-09-10T04:44:51.034Z,4.85
2022-09-10T04:47:17.571Z,4.82
2022-09-10T04:49:43.933Z,4.60
2022-09-10T04:52:11.811Z,4.65
2022-09-10T04:54:38.171Z,3.97
2022-09-10T04:57:05.130Z,4.95
2022-09-10T04:59:31.684Z,4.93
2022-09-10T05:01:58.079Z,5.00
2022-09-10T05:04:25.300Z,4.90
2022-09-10T05:06:51.865Z,5.18
2022-09-10T05:09:18.500Z,4.18
2022-09-10T05:11:45.241Z,4.00
2022-09-10T05:14:11.938Z,4.72
2022-09-10T05:16:38.990Z,4.00
2022-09-10T05:19:06.216Z,3.88
2022-09-10T05:21:32.711Z,3.72
2022-09-10T05:23:59.114Z,4.45
2022-09-10T05:26:25.912Z,4.38
2022-09-10T05:28:55.563Z,4.65
2022-09-10T05:31:22.180Z,4.30
2022-09-10T05:33:48.548Z,4.43
2022-09-10T05:36:14.840Z,4.55
2022-09-10T05:38:41.598Z,4.13
2022-09-10T05:41:11.135Z,4.78
2022-09-10T05:43:37.526Z,4.78
2022-09-10T05:46:04.566Z,4.65
2022-09-10T05:48:31.489Z,4.75
2022-09-10T05:50:57.934Z,4.50
2022-09-10T05:53:24.604Z,4.80
2022-09-10T05:55:51.276Z,4.45
2022-09-10T05:58:17.581Z,4.38
2022-09-10T06:00:43.993Z,4.53
2022-09-10T06:03:10.513Z,4.20
2022-09-10T06:05:36.967Z,3.80
2022-09-10T06:08:09.319Z,4.22
2022-09-10T06:10:35.658Z,4.63
2022-09-10T06:13:02.293Z,4.30
2022-09-10T06:15:28.638Z,4.50
2022-09-10T06:17:55.848Z,4.32
2022-09-10T06:20:23.363Z,4.68
2022-09-10T06:22:49.690Z,4.45
2022-09-10T06:25:16.066Z,4.72
2022-09-10T06:27:42.400Z,4.30
2022-09-10T06:30:08.888Z,4.43
2022-09-10T06:32:35.198Z,4.30
2022-09-10T06:35:01.498Z,4.30
2022-09-10T06:37:27.909Z,4.25
2022-09-10T06:39:54.287Z,4.55
2022-09-10T06:42:20.645Z,4.40
2022-09-10T06:44:47.031Z,4.85
2022-09-10T06:48:01.062Z,4.07
2022-09-10T06:50:00.418Z,4.13
2022-09-10T06:52:28.478Z,4.22
2022-09-10T06:54:54.782Z,4.10
2022-09-10T06:57:25.070Z,4.30
2022-09-10T06:59:51.441Z,4.07
2022-09-10T07:02:17.797Z,4.60
2022-09-10T07:04:44.223Z,4.63
2022-09-10T07:07:10.562Z,4.18
2022-09-10T07:09:36.869Z,3.97
2022-09-10T07:12:04.726Z,3.60
2022-09-10T07:14:31.374Z,3.35
2022-09-10T07:16:57.709Z,3.63
2022-09-10T07:19:24.060Z,3.63
2022-09-10T07:21:50.514Z,3.25
2022-09-10T07:24:16.904Z,2.80
2022-09-10T07:26:43.628Z,2.75
2022-09-10T07:29:10.617Z,2.90
2022-09-10T07:31:38.265Z,2.90
2022-09-10T07:34:05.083Z,2.70
2022-09-10T07:36:31.776Z,2.10
2022-09-10T07:39:01.427Z,2.42
2022-09-10T07:41:31.903Z,2.47
2022-09-10T07:43:58.260Z,2.40
2022-09-10T07:46:25.465Z,2.10
2022-09-10T07:48:56.668Z,2.30
2022-09-10T07:51:23.511Z,1.90
2022-09-10T07:53:57.396Z,2.40
2022-09-10T07:56:24.140Z,2.00
2022-09-10T07:58:51.267Z,2.25
2022-09-10T08:01:19.689Z,1.80
2022-09-10T08:03:46.455Z,2.17
2022-09-10T08:06:12.761Z,2.13
2022-09-10T08:08:40.170Z,2.20
2022-09-10T08:11:11.776Z,2.13
2022-09-10T08:13:42.076Z,2.63
2022-09-10T08:16:09.440Z,3.10
2022-09-10T08:18:36.138Z,2.65
2022-09-10T08:21:03.421Z,2.50
2022-09-10T08:23:30.196Z,2.97
2022-09-10T08:25:56.902Z,2.88
2022-09-10T08:28:25.467Z,2.72
2022-09-10T08:30:56.860Z,2.97
2022-09-10T08:33:23.669Z,3.00
2022-09-10T08:35:57.180Z,2.85
2022-09-10T08:38:24.983Z,2.75
2022-09-10T08:40:52.199Z,2.72
2022-09-10T08:43:24.031Z,2.95
2022-09-10T08:45:50.802Z,2.90
2022-09-10T08:48:19.053Z,2.58
2022-09-10T08:50:50.202Z,2.77
2022-09-10T08:53:26.062Z,3.05
2022-09-10T08:55:57.383Z,2.95
2022-09-10T08:58:40.029Z,3.00
2022-09-10T09:01:07.166Z,2.92
2022-09-10T09:03:47.210Z,2.65
2022-09-10T09:06:22.659Z,2.72
2022-09-10T09:08:49.854Z,2.60
2022-09-10T09:11:24.037Z,2.70
2022-09-10T09:14:05.165Z,2.90
2022-09-10T09:16:50.397Z,2.53
2022-09-10T09:19:29.321Z,2.60
2022-09-10T09:24:23.620Z,2.40
2022-09-10T09:26:52.358Z,2.42
2022-09-10T09:29:19.011Z,2.38
2022-09-10T09:31:53.584Z,2.67
2022-09-10T09:34:19.964Z,2.40
2022-09-10T09:36:49.093Z,2.58
2022-09-10T09:39:35.726Z,2.20
2022-09-10T09:42:02.123Z,2.05
2022-09-10T09:44:31.534Z,2.63
2022-09-10T09:46:57.891Z,2.88
2022-09-10T09:49:25.456Z,2.45
2022-09-10T09:51:52.174Z,2.17
2022-09-10T09:54:56.598Z,2.38
2022-09-10T09:57:14.584Z,2.33
2022-09-10T09:59:41.200Z,2.00
2022-09-10T10:02:23.598Z,2.67
2022-09-10T10:05:03.354Z,2.15
2022-09-10T10:07:33.653Z,2.28
2022-09-10T10:10:03.799Z,2.05
2022-09-10T10:12:33.733Z,2.25
2022-09-10T10:15:01.087Z,2.33
2022-09-10T10:17:35.756Z,1.95
2022-09-10T10:20:02.380Z,1.95
2022-09-10T10:22:32.198Z,1.92
2022-09-10T10:25:02.618Z,2.10
2022-09-10T10:27:32.889Z,2.15
2022-09-10T10:30:01.559Z,2.20
2022-09-10T10:32:48.211Z,1.83
2022-09-10T10:35:27.050Z,1.90
2022-09-10T10:38:14.033Z,2.42
2022-09-10T10:40:59.251Z,1.77
2022-09-10T10:43:44.377Z,2.10
2022-09-10T10:46:12.022Z,2.17
2022-09-10T10:48:57.981Z,2.13
2022-09-10T10:51:53.770Z,1.73
2022-09-10T10:54:38.883Z,2.22
2022-09-10T10:57:24.390Z,2.10
2022-09-10T10:59:51.239Z,2.10
2022-09-10T11:02:37.091Z,2.00
2022-09-10T11:05:26.601Z,2.10
2022-09-10T11:07:53.964Z,2.10
2022-09-10T11:10:23.464Z,1.92
2022-09-10T11:13:12.008Z,2.10
2022-09-10T11:15:38.426Z,1.80
2022-09-10T11:18:17.184Z,1.88
2022-09-10T11:23:18.357Z,1.90
2022-09-10T11:25:55.045Z,1.73
2022-09-10T11:28:24.569Z,1.70
2022-09-10T11:31:02.593Z,1.75
2022-09-10T11:33:46.217Z,2.00
2022-09-10T11:36:20.674Z,1.60
2022-09-10T11:38:55.035Z,1.50
2022-09-10T11:41:27.134Z,1.50
2022-09-10T11:44:23.087Z,1.50
2022-09-10T11:47:21.610Z,1.92
2022-09-10T11:50:03.298Z,1.65
2022-09-10T11:52:30.888Z,1.75
2022-09-10T11:54:58.249Z,1.60
2022-09-10T11:57:40.811Z,1.65
2022-09-10T12:00:15.985Z,1.75
2022-09-10T12:02:48.138Z,1.60
2022-09-10T12:05:37.799Z,1.50
2022-09-10T12:08:22.803Z,1.80
2022-09-10T12:11:07.417Z,1.92
2022-09-10T12:13:36.990Z,1.83
2022-09-10T12:16:09.191Z,1.98
2022-09-10T12:18:42.861Z,1.80
2022-09-10T12:21:16.195Z,1.90
2022-09-10T12:23:43.389Z,1.63
2022-09-10T12:26:14.319Z,1.70
2022-09-10T12:28:43.883Z,1.80
2022-09-10T12:31:11.481Z,1.52
2022-09-10T12:33:44.220Z,1.65
2022-09-10T12:36:26.036Z,1.55
2022-09-10T12:39:16.469Z,1.58
2022-09-10T12:41:42.770Z,1.60
2022-09-10T12:44:28.066Z,1.60
2022-09-10T12:47:13.505Z,1.30
2022-09-10T12:49:46.793Z,1.40
2022-09-10T12:52:15.073Z,1.30
2022-09-10T12:54:50.813Z,1.50
2022-09-10T12:57:17.122Z,1.20
2022-09-10T12:59:46.556Z,1.33
2022-09-10T13:02:21.309Z,1.33
2022-09-10T13:04:54.108Z,1.20
2022-09-10T13:07:33.808Z,1.20
2022-09-10T13:10:22.009Z,1.30
2022-09-10T13:12:50.411Z,1.15
2022-09-10T13:15:21.428Z,1.35
2022-09-10T13:17:47.739Z,1.10
2022-09-10T13:20:27.756Z,1.25
2022-09-10T13:23:01.517Z,1.20
2022-09-10T13:25:37.006Z,1.15
2022-09-10T13:28:23.337Z,1.30
2022-09-10T13:30:58.262Z,1.20
2022-09-10T13:33:29.280Z,1.50
2022-09-10T13:35:56.217Z,1.00
2022-09-10T13:38:36.487Z,1.05
2022-09-10T13:41:21.520Z,1.10
2022-09-10T13:44:01.141Z,1.20
2022-09-10T13:46:37.915Z,1.27
2022-09-10T13:49:07.105Z,1.55
2022-09-10T13:51:59.943Z,1.60
2022-09-10T13:54:34.929Z,1.30
2022-09-10T13:57:04.232Z,1.20
2022-09-10T13:59:31.743Z,1.15
2022-09-10T14:01:59.476Z,1.30
2022-09-10T14:04:26.343Z,1.20
2022-09-10T14:06:58.078Z,1.48
2022-09-10T14:09:25.859Z,1.25
2022-09-10T14:11:52.650Z,1.40
2022-09-10T14:14:22.762Z,1.30
2022-09-10T14:16:51.551Z,1.70
2022-09-10T14:19:27.534Z,1.30
2022-09-10T14:21:53.991Z,1.40
2022-09-10T14:24:39.360Z,1.40
2022-09-10T14:27:23.983Z,1.35
2022-09-10T14:29:50.713Z,1.27
2022-09-10T14:32:17.172Z,1.33
2022-09-10T14:34:43.748Z,1.13
2022-09-10T14:37:45.655Z,1.10
2022-09-10T14:40:15.544Z,1.20
2022-09-10T14:42:41.948Z,1.23
2022-09-10T14:45:29.473Z,1.40
2022-09-10T14:47:55.794Z,1.27
2022-09-10T14:50:34.873Z,1.33
2022-09-10T14:53:01.226Z,1.35
2022-09-10T14:55:30.683Z,1.40
2022-09-10T14:57:57.341Z,1.15
2022-09-10T15:00:24.141Z,1.10
2022-09-10T15:02:55.963Z,1.30
2022-09-10T15:05:22.625Z,1.27
2022-09-10T15:07:49.028Z,1.50
2022-09-10T15:10:17.031Z,1.30
2022-09-10T15:12:44.795Z,1.80
2022-09-10T15:15:17.254Z,1.30
2022-09-10T15:17:44.166Z,1.33
2022-09-10T15:20:14.782Z,1.40
2022-09-10T15:22:41.191Z,1.50
2022-09-10T15:25:10.393Z,1.42
2022-09-10T15:27:38.284Z,1.63
2022-09-10T15:30:05.337Z,1.80
2022-09-10T15:32:31.797Z,1.55
2022-09-10T15:34:58.264Z,2.50
2022-09-10T15:37:24.638Z,3.20
2022-09-10T15:39:54.584Z,2.20
2022-09-10T15:42:21.067Z,2.63
2022-09-10T15:44:47.648Z,2.50
2022-09-10T15:47:14.002Z,3.50
2022-09-10T15:49:40.340Z,4.53
2022-09-10T15:52:06.661Z,4.55
2022-09-10T15:54:35.673Z,4.22
2022-09-10T15:59:31.055Z,2.65
2022-09-10T16:04:36.217Z,2.38
2022-09-10T16:07:03.598Z,2.10
2022-09-10T16:09:30.905Z,2.13
2022-09-10T16:11:57.564Z,3.20
2022-09-10T16:14:24.077Z,5.78
2022-09-10T16:16:51.199Z,4.40
2022-09-10T16:19:17.506Z,4.45
2022-09-10T16:21:45.745Z,5.88
2022-09-10T16:24:12.083Z,7.47
2022-09-10T16:26:40.291Z,8.23
2022-09-10T16:29:07.704Z,41.83
2022-09-10T16:31:35.299Z,31.20
2022-09-10T16:34:03.527Z,23.42
2022-09-10T16:36:31.368Z,12.67
2022-09-10T16:38:58.285Z,18.60
2022-09-10T16:41:27.860Z,35.97
2022-09-10T16:43:55.711Z,27.05
2022-09-10T16:46:22.287Z,23.10
2022-09-10T16:48:51.616Z,27.92
2022-09-10T16:51:20.959Z,24.15
2022-09-10T16:53:52.540Z,23.52
2022-09-10T16:56:19.030Z,19.42
2022-09-10T16:58:46.282Z,14.05
2022-09-10T17:01:34.554Z,8.93
2022-09-10T17:04:03.226Z,6.45
2022-09-10T17:06:30.648Z,5.00
2022-09-10T17:08:58.156Z,4.78
2022-09-10T17:11:29.122Z,4.53
2022-09-10T17:13:58.892Z,2.95
2022-09-10T17:16:30.830Z,2.97
2022-09-10T17:18:58.278Z,2.90
2022-09-10T17:21:29.070Z,2.55
2022-09-10T17:23:55.807Z,3.10
2022-09-10T17:26:24.180Z,3.10
2022-09-10T17:29:10.025Z,2.70
2022-09-10T17:31:36.831Z,2.25
2022-09-10T17:34:03.732Z,2.40
2022-09-10T17:36:30.671Z,2.58
2022-09-10T17:38:59.052Z,2.40
2022-09-10T17:41:26.262Z,2.57
2022-09-10T17:43:52.790Z,2.40
2022-09-10T17:46:21.369Z,1.95
2022-09-10T17:48:48.331Z,1.90
2022-09-10T17:51:18.949Z,1.75
2022-09-10T17:53:45.335Z,1.80
2022-09-10T17:56:13.243Z,1.65
2022-09-10T17:58:39.765Z,1.70
2022-09-10T18:01:08.548Z,2.00
2022-09-10T18:03:35.794Z,2.05
2022-09-10T18:06:06.123Z,2.00
2022-09-10T18:08:32.960Z,2.13
2022-09-10T18:11:05.661Z,2.30
2022-09-10T18:13:35.936Z,3.00
2022-09-10T18:16:06.572Z,3.40
2022-09-10T18:18:36.502Z,3.72
2022-09-10T18:21:10.173Z,4.90
2022-09-10T18:23:36.580Z,4.70
2022-09-10T18:26:12.925Z,5.28
2022-09-10T18:28:39.240Z,5.65
2022-09-10T18:31:05.946Z,6.10
2022-09-10T18:33:39.187Z,5.78
2022-09-10T18:36:13.567Z,6.40
2022-09-10T18:38:40.690Z,5.82
2022-09-10T18:41:16.192Z,6.63
2022-09-10T18:43:42.503Z,6.47
2022-09-10T18:46:08.960Z,6.88
2022-09-10T18:48:35.695Z,6.85
2022-09-10T18:51:10.738Z,7.38
2022-09-10T18:53:38.500Z,6.80
2022-09-10T18:56:15.590Z,6.70
2022-09-10T18:58:42.421Z,7.50
2022-09-10T19:01:11.316Z,7.35
2022-09-10T19:03:39.557Z,7.40
2022-09-10T19:06:08.298Z,7.35
2022-09-10T19:08:35.601Z,7.55
2022-09-10T19:11:05.284Z,8.20
2022-09-10T19:13:32.703Z,7.68
2022-09-10T19:16:00.218Z,7.20
2022-09-10T19:18:27.343Z,7.20
2022-09-10T19:20:54.012Z,7.07
2022-09-10T19:23:20.392Z,7.03
2022-09-10T19:25:53.260Z,7.25
2022-09-10T19:28:20.116Z,7.45
2022-09-10T19:30:47.356Z,7.07
2022-09-10T19:33:15.900Z,7.65
2022-09-10T19:35:43.325Z,7.65
2022-09-10T19:38:33.981Z,7.45
2022-09-10T19:41:05.433Z,7.95
2022-09-10T19:43:32.226Z,7.95
2022-09-10T19:45:58.988Z,7.88
2022-09-10T19:48:25.461Z,7.90
2022-09-10T19:50:51.995Z,8.55
2022-09-10T19:53:18.406Z,7.55
2022-09-10T19:55:44.813Z,7.32
2022-09-10T19:58:11.138Z,7.70
2022-09-10T20:00:46.878Z,7.75
2022-09-10T20:03:14.267Z,7.80
2022-09-10T20:05:42.597Z,8.35
2022-09-10T20:08:09.895Z,8.17
2022-09-10T20:10:36.970Z,8.25
2022-09-10T20:13:03.690Z,7.78
2022-09-10T20:15:31.384Z,7.75
2022-09-10T20:17:57.766Z,8.10
2022-09-10T20:20:24.902Z,7.55
2022-09-10T20:22:51.672Z,7.90
2022-09-10T20:25:18.186Z,8.10
2022-09-10T20:27:44.530Z,8.50
2022-09-10T20:30:11.820Z,8.45
2022-09-10T20:32:38.189Z,8.77
2022-09-10T20:35:05.090Z,8.95
2022-09-10T20:37:31.446Z,8.35
2022-09-10T20:39:58.555Z,8.75
2022-09-10T20:42:28.033Z,8.15
2022-09-10T20:44:57.555Z,8.32
2022-09-10T20:47:26.500Z,9.00
2022-09-10T20:49:52.862Z,9.38
2022-09-10T20:52:19.695Z,9.10
2022-09-10T20:54:46.156Z,8.63
2022-09-10T20:57:12.524Z,8.68
2022-09-10T20:59:39.838Z,9.18
2022-09-10T21:02:08.408Z,8.88
2022-09-10T21:04:34.814Z,9.05
2022-09-10T21:07:01.105Z,9.55
2022-09-10T21:09:27.510Z,9.57
2022-09-10T21:11:53.967Z,9.13
2022-09-10T21:14:20.329Z,10.57
2022-09-10T21:16:47.316Z,11.52
2022-09-10T21:19:17.251Z,10.57
2022-09-10T21:21:49.144Z,10.85
2022-09-10T21:24:16.636Z,11.40
2022-09-10T21:26:43.476Z,10.15
2022-09-10T21:29:11.463Z,10.13
2022-09-10T21:31:38.172Z,10.93
2022-09-10T21:34:06.049Z,12.05
2022-09-10T21:36:34.958Z,11.75
2022-09-10T21:39:02.972Z,11.98
2022-09-10T21:41:31.714Z,12.25
2022-09-10T21:43:58.858Z,11.43
2022-09-10T21:46:25.403Z,12.18
2022-09-10T21:48:51.845Z,11.45
2022-09-10T21:51:19.581Z,10.18
2022-09-10T21:53:46.515Z,10.80
2022-09-10T21:56:16.630Z,10.88
2022-09-10T21:58:44.100Z,12.00
2022-09-10T22:01:14.979Z,11.40
2022-09-10T22:03:41.644Z,11.38
2022-09-10T22:06:09.765Z,11.50
2022-09-10T22:08:36.860Z,11.45
2022-09-10T22:11:11.247Z,11.30
2022-09-10T22:13:37.953Z,10.40
2022-09-10T22:16:07.501Z,11.70
2022-09-10T22:18:34.240Z,11.52
2022-09-10T22:21:00.840Z,11.35
2022-09-10T22:23:28.193Z,12.13
2022-09-10T22:25:54.644Z,13.90
2022-09-10T22:28:21.378Z,13.57
2022-09-10T22:30:47.702Z,14.45
2022-09-10T22:33:14.473Z,12.43
2022-09-10T22:35:40.781Z,13.30
2022-09-10T22:38:07.086Z,12.25
2022-09-10T22:40:33.539Z,12.40
2022-09-10T22:43:02.118Z,12.05
2022-09-10T22:45:28.413Z,10.85
2022-09-10T22:47:54.734Z,11.05
2022-09-10T22:50:22.031Z,11.43
2022-09-10T22:52:48.339Z,12.07
2022-09-10T22:55:14.734Z,10.77
2022-09-10T22:57:41.740Z,10.02
2022-09-10T23:00:10.740Z,11.10
2022-09-10T23:02:37.069Z,11.13
2022-09-10T23:05:03.722Z,11.25
2022-09-10T23:07:30.021Z,11.52
2022-09-10T23:09:56.364Z,11.32
2022-09-10T23:12:22.699Z,12.05
2022-09-10T23:14:49.047Z,11.55
2022-09-10T23:17:18.428Z,10.48
2022-09-10T23:19:46.998Z,10.10
2022-09-10T23:22:13.359Z,10.15
2022-09-10T23:24:39.776Z,10.65
2022-09-10T23:27:06.080Z,9.88
2022-09-10T23:29:32.536Z,10.80
2022-09-10T23:31:59.069Z,11.60
2022-09-10T23:34:25.435Z,10.98
2022-09-10T23:36:51.882Z,11.27
2022-09-10T23:39:22.428Z,10.32
2022-09-10T23:41:49.547Z,11.18
2022-09-10T23:44:16.263Z,10.65
2022-09-10T23:46:43.258Z,10.40
2022-09-10T23:49:09.649Z,11.95
2022-09-10T23:51:36.601Z,12.07
2022-09-10T23:54:03.451Z,11.65
2022-09-10T23:56:29.832Z,12.02
2022-09-10T23:58:58.023Z,12.43
